createdAt,value
2023-05-06T00:04:44.506Z,18.27
2023-05-06T00:09:51.818Z,18.32
2023-05-06T00:14:57.913Z,18.43
2023-05-06T00:20:04.142Z,18.59
2023-05-06T00:25:10.805Z,18.73
2023-05-06T00:30:17.272Z,18.85
2023-05-06T00:35:23.468Z,18.99
2023-05-06T00:40:28.446Z,19.16
2023-05-06T00:45:33.975Z,19.30
2023-05-06T00:50:42.185Z,19.42
2023-05-06T00:55:48.412Z,19.53
2023-05-06T01:00:53.693Z,19.60
2023-05-06T01:06:30.836Z,19.69
2023-05-06T01:11:40.263Z,19.76
2023-05-06T01:16:49.322Z,19.86
2023-05-06T01:21:57.890Z,20.09
2023-05-06T01:27:02.737Z,20.18
2023-05-06T01:32:23.389Z,20.19
2023-05-06T01:37:40.506Z,20.21
2023-05-06T01:42:53.244Z,20.24
2023-05-06T01:47:59.353Z,20.22
2023-05-06T01:53:05.923Z,20.23
2023-05-06T01:58:12.689Z,20.23
2023-05-06T02:03:20.288Z,20.24
2023-05-06T02:08:25.915Z,20.26
2023-05-06T02:13:31.335Z,20.32
2023-05-06T02:18:37.217Z,20.43
2023-05-06T02:23:44.098Z,20.53
2023-05-06T02:28:49.137Z,20.65
2023-05-06T02:33:54.086Z,20.76
2023-05-06T02:38:58.855Z,20.94
2023-05-06T02:44:03.844Z,21.18
2023-05-06T02:49:08.969Z,21.34
2023-05-06T02:54:13.362Z,21.50
2023-05-06T02:59:19.586Z,21.58
2023-05-06T03:04:24.788Z,21.67
2023-05-06T03:09:29.987Z,21.77
2023-05-06T03:14:35.482Z,21.85
2023-05-06T03:19:40.752Z,21.89
2023-05-06T03:24:47.649Z,21.98
2023-05-06T03:29:52.826Z,22.05
2023-05-06T03:35:00.329Z,22.17
2023-05-06T03:40:07.256Z,22.27
2023-05-06T03:45:12.679Z,22.38
2023-05-06T03:50:19.491Z,22.52
2023-05-06T03:55:25.305Z,22.62
2023-05-06T04:00:30.710Z,22.74
2023-05-06T04:05:35.833Z,22.84
2023-05-06T04:10:44.797Z,22.99
2023-05-06T04:16:01.334Z,23.13
2023-05-06T04:21:14.313Z,23.26
2023-05-06T04:26:24.534Z,23.31
2023-05-06T04:31:33.835Z,23.43
2023-05-06T04:36:42.371Z,23.65
2023-05-06T04:42:05.034Z,23.72
2023-05-06T04:47:18.525Z,23.83
2023-05-06T04:52:27.504Z,23.90
2023-05-06T04:57:33.692Z,23.98
2023-05-06T05:02:40.178Z,23.98
2023-05-06T05:07:45.660Z,24.04
2023-05-06T05:12:51.448Z,24.09
2023-05-06T05:17:56.967Z,24.12
2023-05-06T05:23:02.388Z,24.18
2023-05-06T05:28:07.651Z,24.20
2023-05-06T05:33:14.833Z,24.24
2023-05-06T05:38:21.078Z,24.33
2023-05-06T05:43:28.172Z,24.31
2023-05-06T05:48:35.280Z,24.29
2023-05-06T05:53:41.459Z,24.26
2023-05-06T05:58:48.636Z,24.21
2023-05-06T06:03:55.649Z,24.09
2023-05-06T06:09:02.069Z,24.01
2023-05-06T06:14:07.078Z,23.96
2023-05-06T06:19:13.325Z,23.94
2023-05-06T06:24:18.501Z,23.89
2023-05-06T06:29:23.362Z,23.83
2023-05-06T06:34:29.907Z,23.74
2023-05-06T06:39:35.200Z,23.63
2023-05-06T06:44:40.382Z,23.57
2023-05-06T06:49:45.488Z,23.53
2023-05-06T06:54:50.676Z,23.50
2023-05-06T06:59:56.849Z,23.51
2023-05-06T07:05:02.517Z,23.46
2023-05-06T07:10:08.538Z,23.42
2023-05-06T07:15:14.824Z,23.43
2023-05-06T07:20:20.941Z,23.40
2023-05-06T07:25:26.854Z,23.38
2023-05-06T07:30:32.158Z,23.37
2023-05-06T07:35:37.126Z,23.32
2023-05-06T07:40:42.584Z,23.25
2023-05-06T07:45:47.696Z,23.17
2023-05-06T07:50:52.811Z,23.12
2023-05-06T07:56:03.176Z,23.08
2023-05-06T08:01:08.213Z,23.03
2023-05-06T08:06:13.251Z,23.01
2023-05-06T08:11:20.403Z,22.96
2023-05-06T08:16:26.481Z,22.91
2023-05-06T08:21:31.374Z,22.86
2023-05-06T08:26:38.110Z,22.82
2023-05-06T08:31:43.272Z,22.80
2023-05-06T08:36:48.765Z,22.77
2023-05-06T08:41:56.252Z,22.74
2023-05-06T08:47:01.538Z,22.73
2023-05-06T08:52:08.045Z,22.71
2023-05-06T08:57:15.512Z,22.69
2023-05-06T09:02:20.897Z,22.63
2023-05-06T09:07:26.885Z,22.57
2023-05-06T09:12:31.939Z,22.53
2023-05-06T09:17:38.221Z,22.49
2023-05-06T09:22:44.045Z,22.45
2023-05-06T09:27:49.037Z,22.44
2023-05-06T09:32:54.216Z,22.50
2023-05-06T09:37:59.152Z,22.47
2023-05-06T09:43:04.864Z,22.36
2023-05-06T09:48:11.026Z,22.23
2023-05-06T09:53:19.306Z,22.22
2023-05-06T09:58:25.343Z,22.11
2023-05-06T10:03:31.402Z,22.03
2023-05-06T10:08:38.733Z,22.01
2023-05-06T10:13:46.198Z,21.96
2023-05-06T10:18:53.900Z,21.84
2023-05-06T10:24:10.482Z,21.83
2023-05-06T10:29:15.778Z,21.79
2023-05-06T10:34:23.598Z,21.75
2023-05-06T10:39:29.037Z,21.71
2023-05-06T10:45:07.474Z,21.65
2023-05-06T10:50:33.891Z,21.59
2023-05-06T10:55:39.870Z,21.50
2023-05-06T11:00:57.867Z,21.45
2023-05-06T11:06:03.562Z,21.38
2023-05-06T11:11:51.280Z,21.30
2023-05-06T11:16:59.163Z,21.22
2023-05-06T11:22:07.113Z,21.15
2023-05-06T11:27:13.738Z,21.06
2023-05-06T11:32:27.439Z,20.95
2023-05-06T11:37:33.180Z,20.87
2023-05-06T11:42:39.343Z,20.78
2023-05-06T11:47:47.958Z,20.71
2023-05-06T11:52:54.049Z,20.61
2023-05-06T11:57:59.450Z,20.53
2023-05-06T12:03:05.356Z,20.46
2023-05-06T12:08:23.521Z,20.33
2023-05-06T12:13:32.671Z,20.25
2023-05-06T12:18:38.480Z,20.19
2023-05-06T12:23:54.236Z,20.10
2023-05-06T12:29:17.020Z,20.02
2023-05-06T12:34:39.671Z,19.95
2023-05-06T12:39:46.229Z,19.92
2023-05-06T12:44:52.522Z,19.83
2023-05-06T12:50:02.112Z,19.71
2023-05-06T12:55:08.368Z,19.66
2023-05-06T13:00:15.128Z,19.58
2023-05-06T13:05:23.378Z,19.51
2023-05-06T13:10:29.222Z,19.42
2023-05-06T13:15:34.951Z,19.38
2023-05-06T13:20:41.572Z,19.33
2023-05-06T13:26:02.949Z,19.24
2023-05-06T13:31:11.283Z,19.17
2023-05-06T13:36:16.546Z,19.08
2023-05-06T13:41:22.648Z,19.02
2023-05-06T13:46:30.310Z,18.95
2023-05-06T13:51:38.504Z,18.96
2023-05-06T13:56:44.778Z,18.95
2023-05-06T14:01:51.316Z,18.87
2023-05-06T14:06:57.270Z,18.83
2023-05-06T14:12:02.812Z,18.79
2023-05-06T14:17:08.476Z,18.80
2023-05-06T14:22:14.148Z,18.77
2023-05-06T14:27:19.629Z,18.75
2023-05-06T14:32:25.020Z,18.69
2023-05-06T14:37:31.607Z,18.64
2023-05-06T14:42:37.200Z,18.63
2023-05-06T14:47:44.558Z,18.61
2023-05-06T14:52:49.881Z,18.58
2023-05-06T14:57:55.488Z,18.54
2023-05-06T15:03:00.679Z,18.47
2023-05-06T15:08:09.235Z,18.43
2023-05-06T15:13:14.420Z,18.38
2023-05-06T15:18:19.694Z,18.26
2023-05-06T15:23:24.937Z,18.19
2023-05-06T15:28:33.593Z,18.08
2023-05-06T15:33:39.137Z,18.00
2023-05-06T15:39:04.645Z,17.89
2023-05-06T15:44:10.259Z,17.79
2023-05-06T15:49:45.429Z,17.74
2023-05-06T15:54:41.215Z,17.66
2023-05-06T15:59:46.857Z,17.58
2023-05-06T16:04:52.192Z,17.55
2023-05-06T16:09:58.194Z,17.45
2023-05-06T16:15:07.266Z,17.32
2023-05-06T16:20:14.191Z,17.22
2023-05-06T16:25:20.825Z,17.16
2023-05-06T16:30:26.464Z,17.02
2023-05-06T16:35:31.848Z,16.90
2023-05-06T16:40:43.948Z,16.81
2023-05-06T16:45:49.290Z,16.72
2023-05-06T16:50:54.276Z,16.66
2023-05-06T16:55:59.364Z,16.59
2023-05-06T17:01:06.004Z,16.53
2023-05-06T17:06:11.166Z,16.47
2023-05-06T17:11:16.840Z,16.47
2023-05-06T17:16:24.469Z,16.44
2023-05-06T17:21:29.358Z,16.38
2023-05-06T17:26:37.231Z,16.32
2023-05-06T17:31:42.134Z,16.30
2023-05-06T17:36:47.109Z,16.28
2023-05-06T17:41:52.201Z,16.32
2023-05-06T17:46:58.554Z,16.33
2023-05-06T17:52:03.531Z,16.33
2023-05-06T17:57:09.479Z,16.32
2023-05-06T18:02:17.198Z,16.33
2023-05-06T18:07:22.324Z,16.25
2023-05-06T18:12:28.399Z,16.07
2023-05-06T18:17:33.354Z,15.98
2023-05-06T18:22:40.208Z,15.95
2023-05-06T18:27:45.837Z,15.87
2023-05-06T18:32:51.832Z,15.82
2023-05-06T18:37:57.874Z,15.72
2023-05-06T18:43:03.081Z,15.62
2023-05-06T18:48:08.352Z,15.47
2023-05-06T18:53:13.465Z,15.41
2023-05-06T18:58:19.959Z,15.34
2023-05-06T19:03:25.425Z,15.27
2023-05-06T19:08:32.317Z,15.13
2023-05-06T19:13:37.614Z,15.04
2023-05-06T19:18:42.615Z,14.94
2023-05-06T19:23:47.786Z,14.91
2023-05-06T19:28:52.864Z,14.85
2023-05-06T19:33:58.180Z,14.86
2023-05-06T19:39:03.144Z,14.82
2023-05-06T19:44:08.630Z,14.81
2023-05-06T19:49:13.791Z,14.79
2023-05-06T19:54:20.655Z,14.72
2023-05-06T19:59:25.768Z,14.63
2023-05-06T20:04:31.073Z,14.48
2023-05-06T20:09:35.873Z,14.36
2023-05-06T20:14:40.830Z,14.26
2023-05-06T20:19:46.598Z,14.29
2023-05-06T20:24:53.529Z,14.36
2023-05-06T20:29:58.750Z,14.43
2023-05-06T20:35:03.869Z,14.42
2023-05-06T20:40:09.918Z,14.47
2023-05-06T20:45:15.282Z,14.41
2023-05-06T20:50:20.501Z,14.29
2023-05-06T20:55:26.560Z,14.18
2023-05-06T21:00:32.010Z,14.09
2023-05-06T21:05:36.855Z,13.94
2023-05-06T21:10:41.761Z,13.90
2023-05-06T21:15:46.948Z,13.81
2023-05-06T21:20:53.696Z,13.70
2023-05-06T21:26:01.321Z,13.64
2023-05-06T21:31:06.418Z,13.61
2023-05-06T21:36:11.792Z,13.58
2023-05-06T21:41:18.764Z,13.57
2023-05-06T21:46:23.688Z,13.58
2023-05-06T21:51:34.233Z,13.56
2023-05-06T21:56:39.285Z,13.57
2023-05-06T22:01:44.201Z,13.57
2023-05-06T22:06:49.090Z,13.64
2023-05-06T22:11:54.865Z,13.70
2023-05-06T22:16:59.734Z,13.75
2023-05-06T22:22:05.557Z,13.80
2023-05-06T22:27:12.169Z,13.93
2023-05-06T22:32:17.130Z,14.09
2023-05-06T22:37:22.270Z,14.23
2023-05-06T22:42:27.524Z,14.32
2023-05-06T22:47:32.708Z,14.49
2023-05-06T22:52:38.176Z,14.70
2023-05-06T22:57:43.019Z,14.91
2023-05-06T23:02:48.025Z,15.10
2023-05-06T23:07:54.201Z,15.33
2023-05-06T23:13:05.180Z,15.58
2023-05-06T23:18:10.255Z,15.79
2023-05-06T23:23:16.468Z,16.03
2023-05-06T23:28:22.547Z,16.26
2023-05-06T23:33:28.088Z,16.50
2023-05-06T23:38:33.191Z,16.75
2023-05-06T23:43:38.070Z,16.99
2023-05-06T23:48:42.991Z,17.25
2023-05-06T23:53:47.966Z,17.49
2023-05-06T23:58:53.020Z,17.73
